createdAt,value
2019-06-01T00:01:48.827Z,99.90
2019-06-01T00:04:17.258Z,99.90
2019-06-01T00:06:46.982Z,99.90
2019-06-01T00:09:16.273Z,99.90
2019-06-01T00:11:43.838Z,99.90
2019-06-01T00:14:11.398Z,99.90
2019-06-01T00:16:39.939Z,99.90
2019-06-01T00:19:06.571Z,99.90
2019-06-01T00:21:34.188Z,99.90
2019-06-01T00:24:01.760Z,99.90
2019-06-01T00:26:29.355Z,99.90
2019-06-01T00:28:56.908Z,99.90
2019-06-01T00:31:24.479Z,99.90
2019-06-01T00:33:52.051Z,99.90
2019-06-01T00:36:19.675Z,99.90
2019-06-01T00:38:47.819Z,99.90
2019-06-01T00:41:14.852Z,99.90
2019-06-01T00:43:44.188Z,99.90
2019-06-01T00:46:11.571Z,99.90
2019-06-01T00:48:39.132Z,99.90
2019-06-01T00:51:06.691Z,99.90
2019-06-01T00:53:34.256Z,99.90
2019-06-01T00:56:01.820Z,99.90
2019-06-01T00:58:29.384Z,99.90
2019-06-01T01:00:56.947Z,99.90
2019-06-01T01:03:25.278Z,99.90
2019-06-01T01:05:52.840Z,99.90
2019-06-01T01:08:20.399Z,99.90
2019-06-01T01:10:49.091Z,99.90
2019-06-01T01:13:15.580Z,99.90
2019-06-01T01:15:43.505Z,99.90
2019-06-01T01:18:11.077Z,99.90
2019-06-01T01:20:38.644Z,99.90
2019-06-01T01:23:06.213Z,99.90
2019-06-01T01:25:35.736Z,99.90
2019-06-01T01:28:05.264Z,99.90
2019-06-01T01:30:32.827Z,99.90
2019-06-01T01:33:00.393Z,99.90
2019-06-01T01:35:28.720Z,99.90
2019-06-01T01:37:56.289Z,99.90
2019-06-01T01:40:23.861Z,99.90
2019-06-01T01:42:52.361Z,99.90
2019-06-01T01:45:19.027Z,99.90
2019-06-01T01:47:46.595Z,99.90
2019-06-01T01:50:16.107Z,99.90
2019-06-01T01:52:44.588Z,99.90
2019-06-01T01:55:12.811Z,99.90
2019-06-01T01:57:42.312Z,99.90
2019-06-01T02:00:10.650Z,99.90
2019-06-01T02:02:40.131Z,99.90
2019-06-01T02:05:07.697Z,99.90
2019-06-01T02:07:35.265Z,99.90
2019-06-01T02:10:02.851Z,99.90
2019-06-01T02:12:30.410Z,99.90
2019-06-01T02:14:57.984Z,99.90
2019-06-01T02:17:25.562Z,99.90
2019-06-01T02:19:54.118Z,99.90
2019-06-01T02:22:22.269Z,99.90
2019-06-01T02:24:49.831Z,99.90
2019-06-01T02:27:17.399Z,99.90
2019-06-01T02:29:44.973Z,99.90
2019-06-01T02:32:13.304Z,99.90
2019-06-01T02:34:40.864Z,99.90
2019-06-01T02:37:08.526Z,99.90
2019-06-01T02:39:36.121Z,99.90
2019-06-01T02:42:05.355Z,99.90
2019-06-01T02:44:31.278Z,99.90
2019-06-01T02:46:59.546Z,99.90
2019-06-01T02:49:26.445Z,99.90
2019-06-01T02:51:55.065Z,99.90
2019-06-01T02:54:21.609Z,99.90
2019-06-01T02:56:49.179Z,99.90
2019-06-01T02:59:16.826Z,99.90
2019-06-01T03:01:56.821Z,99.90
2019-06-01T03:04:12.016Z,99.90
2019-06-01T03:06:39.687Z,99.90
2019-06-01T03:09:08.857Z,99.90
2019-06-01T03:11:34.828Z,99.90
2019-06-01T03:14:02.489Z,99.90
2019-06-01T03:16:29.996Z,99.90
2019-06-01T03:18:59.600Z,99.90
2019-06-01T03:21:26.700Z,99.90
2019-06-01T03:23:54.250Z,99.90
2019-06-01T03:26:21.818Z,99.90
2019-06-01T03:28:49.387Z,99.90
2019-06-01T03:31:16.948Z,99.90
2019-06-01T03:33:44.505Z,99.90
2019-06-01T03:36:13.097Z,99.90
2019-06-01T03:38:39.674Z,99.90
2019-06-01T03:41:09.169Z,99.90
2019-06-01T03:43:37.491Z,99.90
2019-06-01T03:46:06.962Z,99.90
2019-06-01T03:48:36.447Z,99.90
2019-06-01T03:51:04.014Z,99.90
2019-06-01T03:53:31.599Z,99.90
2019-06-01T03:55:59.182Z,99.90
2019-06-01T03:58:26.747Z,99.90
2019-06-01T04:00:54.308Z,99.90
2019-06-01T04:03:21.863Z,99.90
2019-06-01T04:05:50.190Z,99.90
2019-06-01T04:08:17.856Z,99.90
2019-06-01T04:10:45.513Z,99.90
2019-06-01T04:13:14.998Z,99.90
2019-06-01T04:15:42.685Z,99.90
2019-06-01T04:18:10.335Z,99.90
2019-06-01T04:20:37.846Z,99.90
2019-06-01T04:23:06.172Z,99.90
2019-06-01T04:25:33.109Z,99.90
2019-06-01T04:28:01.967Z,99.90
2019-06-01T04:30:28.267Z,99.90
2019-06-01T04:32:55.822Z,99.90
2019-06-01T04:35:23.380Z,99.90
2019-06-01T04:37:51.721Z,99.90
2019-06-01T04:40:19.290Z,99.90
2019-06-01T04:42:46.854Z,99.90
2019-06-01T04:45:14.461Z,99.90
2019-06-01T04:47:43.919Z,99.90
2019-06-01T04:50:12.769Z,99.90
2019-06-01T04:52:39.118Z,99.90
2019-06-01T04:55:07.361Z,99.90
2019-06-01T04:57:34.304Z,99.90
2019-06-01T05:00:02.210Z,99.90
2019-06-01T05:02:29.654Z,99.90
2019-06-01T05:04:59.133Z,99.90
2019-06-01T05:07:26.691Z,99.90
2019-06-01T05:09:54.261Z,99.90
2019-06-01T05:12:21.827Z,99.90
2019-06-01T05:14:49.382Z,99.90
2019-06-01T05:17:18.856Z,99.90
2019-06-01T05:19:46.412Z,99.90
2019-06-01T05:22:14.602Z,99.90
2019-06-01T05:24:41.583Z,99.90
2019-06-01T05:27:11.148Z,99.90
2019-06-01T05:29:37.659Z,99.90
2019-06-01T05:32:05.227Z,99.90
2019-06-01T05:34:32.791Z,99.90
2019-06-01T05:37:00.355Z,99.90
2019-06-01T05:39:27.917Z,99.90
2019-06-01T05:41:55.471Z,99.90
2019-06-01T05:44:24.960Z,99.90
2019-06-01T05:46:52.539Z,99.90
2019-06-01T05:49:20.101Z,99.90
2019-06-01T05:51:49.576Z,99.90
2019-06-01T05:54:19.081Z,99.90
2019-06-01T05:56:46.641Z,99.90
2019-06-01T05:59:14.200Z,99.90
2019-06-01T06:01:41.759Z,99.90
2019-06-01T06:04:09.415Z,99.90
2019-06-01T06:06:36.976Z,99.90
2019-06-01T06:09:04.527Z,99.90
2019-06-01T06:11:33.022Z,99.90
2019-06-01T06:14:00.582Z,99.90
2019-06-01T06:16:28.143Z,99.90
2019-06-01T06:18:55.696Z,99.90
2019-06-01T06:21:23.261Z,99.90
2019-06-01T06:23:50.910Z,99.90
2019-06-01T06:26:19.158Z,99.90
2019-06-01T06:28:46.091Z,99.90
2019-06-01T06:31:14.922Z,99.90
2019-06-01T06:33:55.418Z,99.90
2019-06-01T06:36:08.892Z,99.90
2019-06-01T06:38:36.454Z,99.90
2019-06-01T06:41:04.046Z,99.90
2019-06-01T06:43:33.343Z,99.90
2019-06-01T06:45:59.203Z,99.90
2019-06-01T06:48:27.731Z,99.90
2019-06-01T06:50:55.301Z,99.90
2019-06-01T06:53:32.362Z,99.90
2019-06-01T06:55:51.513Z,99.90
2019-06-01T06:58:20.888Z,99.90
2019-06-01T07:00:47.615Z,99.90
2019-06-01T07:03:15.185Z,99.90
2019-06-01T07:05:42.873Z,99.90
2019-06-01T07:08:10.435Z,99.90
2019-06-01T07:10:38.012Z,99.90
2019-06-01T07:13:05.590Z,99.90
2019-06-01T07:15:34.838Z,99.90
2019-06-01T07:18:02.416Z,99.90
2019-06-01T07:20:30.009Z,99.90
2019-06-01T07:22:57.570Z,99.90
2019-06-01T07:25:26.890Z,99.90
2019-06-01T07:27:54.266Z,99.90
2019-06-01T07:30:22.192Z,99.90
2019-06-01T07:32:49.435Z,99.90
2019-06-01T07:35:20.388Z,99.90
2019-06-01T07:37:46.563Z,99.90
2019-06-01T07:40:14.406Z,99.90
2019-06-01T07:42:42.494Z,99.90
2019-06-01T07:45:10.063Z,99.90
2019-06-01T07:47:38.396Z,99.90
2019-06-01T07:50:05.955Z,99.90
2019-06-01T07:52:33.513Z,99.90
2019-06-01T07:55:01.071Z,99.90
2019-06-01T07:57:29.676Z,99.90
2019-06-01T07:59:56.245Z,99.90
2019-06-01T08:02:26.306Z,99.90
2019-06-01T08:04:54.442Z,99.90
2019-06-01T08:07:19.023Z,99.90
2019-06-01T08:09:46.585Z,99.90
2019-06-01T08:12:16.863Z,99.90
2019-06-01T08:14:44.422Z,99.90
2019-06-01T08:17:11.988Z,99.90
2019-06-01T08:19:39.552Z,99.90
2019-06-01T08:22:07.419Z,99.90
2019-06-01T08:24:34.750Z,99.90
2019-06-01T08:27:02.306Z,99.90
2019-06-01T08:29:32.867Z,99.90
2019-06-01T08:31:59.408Z,99.90
2019-06-01T08:34:26.989Z,99.90
2019-06-01T08:36:54.552Z,99.90
2019-06-01T08:39:23.381Z,99.90
2019-06-01T08:41:49.835Z,99.90
2019-06-01T08:44:17.392Z,99.90
2019-06-01T08:46:44.955Z,99.90
2019-06-01T08:49:13.289Z,99.90
2019-06-01T08:51:40.847Z,99.90
2019-06-01T08:54:08.409Z,99.90
2019-06-01T08:56:35.975Z,99.90
2019-06-01T08:59:03.538Z,99.90
2019-06-01T09:01:32.796Z,99.90
2019-06-01T09:03:59.471Z,99.90
2019-06-01T09:06:27.033Z,99.90
2019-06-01T09:08:56.603Z,99.90
2019-06-01T09:11:25.075Z,99.90
2019-06-01T09:13:52.461Z,99.90
2019-06-01T09:16:19.378Z,99.90
2019-06-01T09:18:46.942Z,99.90
2019-06-01T09:21:16.451Z,99.90
2019-06-01T09:23:45.937Z,99.90
2019-06-01T09:26:13.695Z,99.90
2019-06-01T09:28:41.265Z,99.90
2019-06-01T09:31:09.528Z,99.90
2019-06-01T09:33:37.908Z,99.90
2019-06-01T09:36:05.462Z,99.90
2019-06-01T09:38:33.770Z,99.90
2019-06-01T09:41:00.632Z,99.90
2019-06-01T09:43:31.110Z,99.90
2019-06-01T09:45:58.676Z,99.90
2019-06-01T09:48:27.054Z,99.90
2019-06-01T09:50:53.859Z,99.90
2019-06-01T09:53:21.428Z,99.90
2019-06-01T09:55:48.984Z,99.90
2019-06-01T09:58:16.539Z,99.90
2019-06-01T10:00:44.145Z,99.90
2019-06-01T10:03:11.709Z,99.90
2019-06-01T10:05:40.200Z,99.90
2019-06-01T10:08:07.769Z,99.90
2019-06-01T10:10:36.091Z,99.90
2019-06-01T10:13:06.906Z,99.90
2019-06-01T10:15:32.417Z,99.90
2019-06-01T10:17:58.867Z,99.90
2019-06-01T10:20:26.427Z,99.90
2019-06-01T10:22:53.979Z,99.90
2019-06-01T10:25:21.534Z,99.90
2019-06-01T10:27:49.093Z,99.90
2019-06-01T10:30:16.702Z,99.90
2019-06-01T10:32:45.020Z,99.90
2019-06-01T10:35:14.505Z,99.90
2019-06-01T10:37:42.071Z,99.90
2019-06-01T10:40:09.627Z,99.90
2019-06-01T10:42:37.982Z,99.90
2019-06-01T10:45:04.799Z,99.90
2019-06-01T10:47:33.754Z,99.90
2019-06-01T10:50:01.495Z,99.90
2019-06-01T10:52:29.082Z,99.90
2019-06-01T10:54:58.575Z,99.90
2019-06-01T10:57:26.135Z,99.90
2019-06-01T10:59:53.695Z,99.90
2019-06-01T11:02:22.059Z,99.90
2019-06-01T11:04:49.686Z,99.90
2019-06-01T11:07:17.249Z,99.90
2019-06-01T11:09:44.802Z,99.90
2019-06-01T11:12:12.360Z,99.90
2019-06-01T11:14:41.182Z,99.90
2019-06-01T11:17:07.535Z,99.90
2019-06-01T11:19:35.310Z,99.90
2019-06-01T11:22:02.707Z,99.90
2019-06-01T11:24:30.255Z,99.90
2019-06-01T11:26:57.897Z,99.90
2019-06-01T11:29:25.408Z,99.90
2019-06-01T11:31:52.966Z,99.90
2019-06-01T11:34:20.560Z,99.90
2019-06-01T11:37:04.249Z,99.90
2019-06-01T11:39:15.732Z,99.90
2019-06-01T11:41:44.665Z,99.90
2019-06-01T11:44:10.911Z,99.90
2019-06-01T11:46:38.827Z,99.90
2019-06-01T11:49:06.093Z,99.90
2019-06-01T11:51:34.827Z,99.90
2019-06-01T11:54:01.277Z,99.90
2019-06-01T11:56:28.842Z,99.90
2019-06-01T11:58:56.391Z,99.90
2019-06-01T12:01:23.947Z,99.90
2019-06-01T12:03:51.499Z,99.90
2019-06-01T12:06:21.004Z,99.90
2019-06-01T12:08:48.602Z,99.90
2019-06-01T12:11:16.225Z,99.90
2019-06-01T12:13:46.587Z,99.90
2019-06-01T12:16:13.306Z,99.90
2019-06-01T12:18:42.780Z,99.90
2019-06-01T12:21:10.335Z,99.90
2019-06-01T12:23:38.979Z,99.90
2019-06-01T12:26:05.513Z,99.90
2019-06-01T12:28:33.085Z,99.90
2019-06-01T12:31:00.644Z,99.90
2019-06-01T12:33:30.120Z,99.90
2019-06-01T12:35:57.675Z,99.90
2019-06-01T12:38:25.231Z,99.90
2019-06-01T12:40:53.566Z,99.90
2019-06-01T12:43:21.376Z,99.90
2019-06-01T12:46:04.847Z,99.90
2019-06-01T12:48:16.555Z,99.90
2019-06-01T12:50:47.812Z,99.90
2019-06-01T12:53:11.712Z,99.90
2019-06-01T12:55:40.474Z,99.90
2019-06-01T12:58:06.878Z,99.90
2019-06-01T13:00:34.451Z,99.90
2019-06-01T13:03:07.661Z,99.90
2019-06-01T13:05:31.202Z,99.90
2019-06-01T13:08:02.789Z,99.90
2019-06-01T13:10:28.267Z,99.90
2019-06-01T13:12:56.599Z,99.90
2019-06-01T13:15:25.175Z,99.90
2019-06-01T13:17:52.733Z,99.90
2019-06-01T13:20:20.298Z,99.90
2019-06-01T13:22:47.854Z,99.90
2019-06-01T13:25:16.358Z,99.90
2019-06-01T13:27:44.279Z,99.90
2019-06-01T13:30:12.439Z,99.90
2019-06-01T13:32:40.012Z,99.90
2019-06-01T13:35:08.516Z,99.90
2019-06-01T13:37:36.075Z,99.90
2019-06-01T13:40:03.638Z,99.90
2019-06-01T13:42:31.212Z,99.90
2019-06-01T13:44:58.781Z,99.90
2019-06-01T13:47:28.036Z,99.90
2019-06-01T13:49:57.515Z,99.90
2019-06-01T13:52:26.983Z,99.90
2019-06-01T13:54:55.304Z,99.90
2019-06-01T13:57:22.867Z,99.90
2019-06-01T13:59:50.948Z,99.40
2019-06-01T14:02:18.129Z,99.50
2019-06-01T14:04:47.628Z,97.00
2019-06-01T14:07:15.959Z,94.40
2019-06-01T14:09:43.527Z,94.10
2019-06-01T14:12:11.083Z,90.60
2019-06-01T14:14:38.642Z,89.50
2019-06-01T14:17:06.209Z,85.60
2019-06-01T14:19:33.768Z,82.50
2019-06-01T14:22:01.326Z,81.10
2019-06-01T14:24:29.815Z,80.30
2019-06-01T14:26:57.382Z,76.60
2019-06-01T14:29:25.855Z,77.00
2019-06-01T14:31:55.105Z,74.30
2019-06-01T14:34:21.033Z,76.40
2019-06-01T14:36:48.639Z,73.70
2019-06-01T14:39:16.195Z,70.90
2019-06-01T14:41:43.751Z,72.00
2019-06-01T14:44:11.308Z,71.40
2019-06-01T14:46:52.938Z,69.30
2019-06-01T14:49:06.484Z,69.90
2019-06-01T14:51:34.047Z,72.50
2019-06-01T14:54:01.608Z,71.50
2019-06-01T14:56:30.164Z,70.90
2019-06-01T14:58:58.398Z,70.20
2019-06-01T15:01:32.466Z,70.40
2019-06-01T15:03:54.835Z,71.30
2019-06-01T15:06:23.496Z,68.50
2019-06-01T15:09:11.972Z,68.30
2019-06-01T15:11:18.664Z,70.50
2019-06-01T15:13:46.228Z,66.80
2019-06-01T15:16:13.796Z,65.90
2019-06-01T15:18:41.355Z,65.90
2019-06-01T15:21:08.915Z,68.90
2019-06-01T15:23:36.471Z,65.70
2019-06-01T15:26:04.922Z,68.20
2019-06-01T15:28:32.480Z,66.60
2019-06-01T15:31:00.048Z,65.20
2019-06-01T15:33:27.610Z,64.70
2019-06-01T15:35:57.685Z,66.10
2019-06-01T15:38:24.657Z,67.50
2019-06-01T15:40:52.283Z,69.50
2019-06-01T15:43:19.848Z,71.20
2019-06-01T15:45:47.411Z,72.40
2019-06-01T15:48:15.741Z,72.40
2019-06-01T15:50:43.325Z,72.30
2019-06-01T15:53:10.895Z,73.20
2019-06-01T15:55:38.455Z,73.40
2019-06-01T15:58:06.875Z,75.20
2019-06-01T16:00:34.431Z,76.00
2019-06-01T16:03:03.071Z,74.90
2019-06-01T16:05:29.588Z,74.50
2019-06-01T16:07:57.183Z,74.40
2019-06-01T16:10:25.651Z,73.60
2019-06-01T16:12:55.253Z,74.50
2019-06-01T16:15:22.354Z,75.20
2019-06-01T16:17:49.912Z,75.20
2019-06-01T16:20:17.470Z,73.70
2019-06-01T16:22:45.050Z,72.80
2019-06-01T16:25:12.676Z,72.50
2019-06-01T16:27:40.251Z,76.00
2019-06-01T16:30:09.728Z,74.60
2019-06-01T16:32:39.527Z,74.80
2019-06-01T16:35:05.668Z,73.00
2019-06-01T16:37:35.183Z,72.90
2019-06-01T16:40:07.914Z,74.20
2019-06-01T16:42:31.199Z,76.60
2019-06-01T16:44:59.419Z,76.60
2019-06-01T16:47:27.343Z,77.10
2019-06-01T16:49:55.777Z,77.00
2019-06-01T16:52:22.534Z,76.70
2019-06-01T16:54:50.095Z,77.60
2019-06-01T16:57:17.655Z,78.60
2019-06-01T16:59:47.132Z,81.10
2019-06-01T17:02:14.692Z,83.30
2019-06-01T17:04:42.243Z,84.20
2019-06-01T17:07:10.583Z,86.50
2019-06-01T17:09:38.135Z,86.40
2019-06-01T17:12:05.695Z,86.60
2019-06-01T17:14:33.252Z,87.50
2019-06-01T17:17:01.101Z,89.30
2019-06-01T17:19:28.415Z,90.40
2019-06-01T17:21:57.219Z,90.90
2019-06-01T17:24:24.503Z,90.60
2019-06-01T17:26:53.003Z,90.90
2019-06-01T17:29:20.559Z,91.40
2019-06-01T17:31:54.459Z,91.60
2019-06-01T17:34:16.640Z,92.40
2019-06-01T17:36:44.197Z,92.80
2019-06-01T17:39:12.293Z,92.90
2019-06-01T17:41:40.316Z,93.20
2019-06-01T17:44:09.020Z,93.60
2019-06-01T17:46:43.300Z,94.10
2019-06-01T17:49:06.123Z,94.80
2019-06-01T17:51:34.487Z,95.00
2019-06-01T17:54:02.867Z,95.50
2019-06-01T17:56:32.275Z,96.30
2019-06-01T17:58:59.831Z,96.20
2019-06-01T18:01:28.327Z,96.10
2019-06-01T18:03:57.821Z,96.20
2019-06-01T18:06:25.391Z,97.10
2019-06-01T18:08:52.947Z,97.30
2019-06-01T18:11:21.277Z,97.80
2019-06-01T18:13:48.848Z,97.70
2019-06-01T18:16:16.409Z,98.30
2019-06-01T18:18:44.042Z,97.70
2019-06-01T18:21:12.896Z,97.70
2019-06-01T18:23:39.416Z,98.50
2019-06-01T18:26:07.071Z,98.50
2019-06-01T18:28:34.582Z,98.80
2019-06-01T18:31:02.711Z,99.30
2019-06-01T18:33:30.523Z,99.90
2019-06-01T18:35:58.090Z,99.90
2019-06-01T18:38:25.644Z,99.90
2019-06-01T18:41:06.513Z,99.90
2019-06-01T18:43:21.567Z,99.90
2019-06-01T18:45:49.140Z,99.90
2019-06-01T18:48:16.708Z,99.90
2019-06-01T18:50:44.266Z,99.90
2019-06-01T18:53:12.146Z,99.90
2019-06-01T18:55:39.435Z,99.90
2019-06-01T18:58:08.145Z,99.90
2019-06-01T19:00:38.667Z,99.90
2019-06-01T19:03:02.211Z,99.90
2019-06-01T19:05:30.691Z,99.90
2019-06-01T19:07:58.248Z,99.90
2019-06-01T19:10:25.808Z,99.90
2019-06-01T19:12:53.464Z,99.90
2019-06-01T19:15:28.661Z,99.90
2019-06-01T19:17:48.836Z,99.90
2019-06-01T19:20:17.014Z,99.90
2019-06-01T19:22:44.321Z,99.90
2019-06-01T19:25:13.194Z,99.90
2019-06-01T19:27:40.347Z,99.90
2019-06-01T19:30:08.856Z,99.90
2019-06-01T19:32:35.925Z,99.90
2019-06-01T19:35:04.354Z,99.90
2019-06-01T19:37:31.928Z,99.90
2019-06-01T19:40:01.408Z,99.90
2019-06-01T19:42:30.023Z,99.90
2019-06-01T19:44:57.607Z,99.90
2019-06-01T19:47:25.228Z,99.90
2019-06-01T19:49:53.050Z,99.90
2019-06-01T19:52:20.630Z,99.90
2019-06-01T19:54:48.207Z,99.90
2019-06-01T19:57:20.297Z,99.90
2019-06-01T19:59:46.818Z,99.90
2019-06-01T20:02:25.900Z,99.90
2019-06-01T20:04:41.991Z,99.90
2019-06-01T20:07:10.991Z,99.90
2019-06-01T20:09:37.164Z,99.90
2019-06-01T20:12:11.312Z,99.90
2019-06-01T20:14:32.327Z,99.90
2019-06-01T20:16:59.891Z,99.90
2019-06-01T20:19:27.447Z,99.90
2019-06-01T20:21:55.095Z,99.90
2019-06-01T20:24:22.656Z,99.90
2019-06-01T20:26:50.354Z,99.90
2019-06-01T20:29:19.864Z,99.90
2019-06-01T20:31:47.428Z,99.90
2019-06-01T20:34:15.840Z,99.90
2019-06-01T20:36:42.587Z,99.90
2019-06-01T20:39:10.143Z,99.90
2019-06-01T20:41:39.658Z,99.90
2019-06-01T20:44:07.221Z,99.90
2019-06-01T20:46:34.775Z,99.90
2019-06-01T20:49:02.432Z,99.90
2019-06-01T20:51:30.004Z,99.90
2019-06-01T20:53:58.475Z,99.90
2019-06-01T20:56:26.036Z,99.90
2019-06-01T20:58:53.595Z,99.90
2019-06-01T21:01:21.933Z,99.90
2019-06-01T21:03:49.527Z,99.90
2019-06-01T21:06:18.614Z,99.90
2019-06-01T21:08:45.775Z,99.90
2019-06-01T21:11:13.900Z,99.90
2019-06-01T21:13:40.927Z,99.90
2019-06-01T21:16:09.251Z,99.90
2019-06-01T21:18:36.804Z,99.90
2019-06-01T21:21:05.410Z,99.90
2019-06-01T21:23:32.990Z,99.90
2019-06-01T21:26:00.548Z,99.90
2019-06-01T21:28:28.104Z,99.90
2019-06-01T21:30:56.591Z,99.90
2019-06-01T21:33:27.153Z,99.90
2019-06-01T21:35:51.751Z,99.90
2019-06-01T21:38:19.514Z,99.90
2019-06-01T21:40:47.167Z,99.90
2019-06-01T21:43:25.124Z,99.90
2019-06-01T21:45:42.364Z,99.90
2019-06-01T21:48:10.007Z,99.90
2019-06-01T21:50:37.522Z,99.90
2019-06-01T21:53:05.079Z,99.90
2019-06-01T21:55:32.640Z,99.90
2019-06-01T21:58:01.166Z,99.90
2019-06-01T22:00:28.719Z,99.90
2019-06-01T22:02:57.040Z,99.90
2019-06-01T22:05:25.367Z,99.90
2019-06-01T22:07:52.391Z,99.90
2019-06-01T22:10:21.036Z,99.90
2019-06-01T22:12:47.552Z,99.90
2019-06-01T22:15:15.343Z,99.90
2019-06-01T22:17:43.975Z,99.90
2019-06-01T22:20:12.051Z,99.90
2019-06-01T22:22:40.376Z,99.90
2019-06-01T22:25:07.939Z,99.90
2019-06-01T22:27:37.517Z,99.90
2019-06-01T22:30:05.075Z,99.90
2019-06-01T22:32:32.736Z,99.90
2019-06-01T22:35:00.292Z,99.90
2019-06-01T22:37:28.282Z,99.90
2019-06-01T22:39:57.250Z,99.90
2019-06-01T22:42:26.304Z,99.90
2019-06-01T22:44:52.619Z,99.90
2019-06-01T22:47:20.423Z,99.90
2019-06-01T22:49:47.788Z,99.90
2019-06-01T22:52:16.265Z,99.90
2019-06-01T22:54:43.944Z,99.90
2019-06-01T22:57:11.500Z,99.90
2019-06-01T22:59:39.068Z,99.90
2019-06-01T23:02:06.635Z,99.90
2019-06-01T23:04:34.198Z,99.90
2019-06-01T23:07:04.447Z,99.90
2019-06-01T23:09:32.012Z,99.90
2019-06-01T23:11:59.570Z,99.90
2019-06-01T23:14:27.391Z,99.90
2019-06-01T23:16:54.732Z,99.90
2019-06-01T23:19:23.695Z,99.90
2019-06-01T23:21:51.003Z,99.90
2019-06-01T23:24:19.356Z,99.90
2019-06-01T23:26:46.923Z,99.90
2019-06-01T23:29:14.478Z,99.90
2019-06-01T23:31:42.036Z,99.90
2019-06-01T23:34:11.527Z,99.90
2019-06-01T23:36:39.095Z,99.90
2019-06-01T23:39:06.657Z,99.90
2019-06-01T23:41:34.219Z,99.90
2019-06-01T23:44:11.839Z,99.90
2019-06-01T23:46:31.070Z,99.90
2019-06-01T23:48:57.750Z,99.90
2019-06-01T23:51:25.414Z,99.90
2019-06-01T23:53:52.916Z,99.90
2019-06-01T23:56:20.479Z,99.90
2019-06-01T23:58:49.717Z,99.90
